Time;durP1;ratioP1;P1;durP2;ratioP2;P2;SDS_P1;SDS_P2;PMS_P1;PMS_P2;Temp;Humidity;BMP_temperature;BMP_pressure;BME280_temperature;BME280_humidity;BME280_pressure;Samples;Min_cycle;Max_cycle;Signal;HPM_P1;HPM_P2
2023/04/22 00:02:15;;;;;;;0.80;0.80;;;11.80;99.90;;;;;;5071094;28;20207;-64
2023/04/22 00:04:42;;;;;;;0.63;0.63;;;11.80;99.90;;;;;;5074855;28;20317;-66
2023/04/22 00:07:09;;;;;;;0.63;0.63;;;11.80;99.90;;;;;;5077106;28;20237;-65
2023/04/22 00:09:36;;;;;;;1.00;1.00;;;11.80;99.90;;;;;;5074235;28;20304;-64
2023/04/22 00:12:03;;;;;;;0.80;0.80;;;11.80;99.90;;;;;;5074752;28;20669;-64
2023/04/22 00:14:29;;;;;;;0.80;0.80;;;11.80;99.90;;;;;;5075047;28;20203;-66
2023/04/22 00:16:57;;;;;;;0.77;0.77;;;11.80;99.90;;;;;;5075191;28;20207;-66
2023/04/22 00:19:25;;;;;;;0.70;0.70;;;11.70;99.90;;;;;;5073740;28;20295;-63
2023/04/22 00:21:52;;;;;;;0.97;0.97;;;11.70;99.90;;;;;;5074582;28;20238;-64
2023/04/22 00:24:19;;;;;;;0.80;0.80;;;11.60;99.90;;;;;;5074385;28;20227;-64
2023/04/22 00:26:46;;;;;;;0.60;0.60;;;11.60;99.90;;;;;;5075084;28;20199;-65
2023/04/22 00:29:12;;;;;;;0.70;0.70;;;11.60;99.90;;;;;;5074514;28;20207;-63
2023/04/22 00:31:39;;;;;;;0.70;0.70;;;11.60;99.90;;;;;;5074477;28;20207;-65
2023/04/22 00:34:06;;;;;;;0.73;0.73;;;11.60;99.90;;;;;;5074622;28;20204;-63
2023/04/22 00:36:34;;;;;;;0.63;0.63;;;11.60;99.90;;;;;;5074794;28;20294;-64
2023/04/22 00:39:01;;;;;;;0.70;0.70;;;11.60;99.90;;;;;;5074187;28;20222;-65
2023/04/22 00:41:29;;;;;;;0.60;0.60;;;11.70;99.90;;;;;;5073951;28;20335;-65
2023/04/22 00:43:58;;;;;;;0.80;0.80;;;11.60;99.90;;;;;;5074716;28;20203;-65
2023/04/22 00:46:25;;;;;;;0.68;0.68;;;11.70;99.90;;;;;;5074450;28;20207;-64
2023/04/22 00:48:53;;;;;;;0.80;0.80;;;11.70;99.90;;;;;;5074456;28;20211;-64
2023/04/22 00:51:19;;;;;;;0.70;0.70;;;11.70;99.90;;;;;;5073267;28;20219;-64
2023/04/22 00:53:48;;;;;;;0.70;0.70;;;11.70;99.90;;;;;;5074081;28;20689;-65
2023/04/22 00:56:15;;;;;;;0.80;0.80;;;11.70;99.90;;;;;;5075286;28;20199;-64
2023/04/22 00:58:42;;;;;;;0.60;0.60;;;11.60;99.90;;;;;;5077104;28;20199;-65
2023/04/22 01:01:09;;;;;;;0.80;0.80;;;11.70;99.90;;;;;;5076439;28;20227;-66
2023/04/22 01:03:38;;;;;;;0.70;0.70;;;11.70;99.90;;;;;;5077601;28;20295;-65
2023/04/22 01:06:05;;;;;;;0.70;0.70;;;11.60;99.90;;;;;;5078163;28;20219;-65
2023/04/22 01:08:33;;;;;;;0.70;0.70;;;11.60;99.90;;;;;;5072153;28;20213;-64
2023/04/22 01:11:02;;;;;;;1.40;0.75;;;11.70;99.90;;;;;;5073324;28;20594;-65
2023/04/22 01:13:29;;;;;;;0.70;0.70;;;11.70;99.90;;;;;;5074698;28;20681;-67
2023/04/22 01:15:56;;;;;;;0.70;0.70;;;11.70;99.90;;;;;;5075094;28;20206;-64
2023/04/22 01:18:23;;;;;;;0.53;0.53;;;11.70;99.90;;;;;;5074897;28;20260;-65
2023/04/22 01:20:50;;;;;;;0.55;0.55;;;11.60;99.90;;;;;;5073686;28;20223;-66
2023/04/22 01:23:20;;;;;;;0.60;0.60;;;11.60;99.90;;;;;;5073780;28;20235;-65
2023/04/22 01:25:47;;;;;;;0.60;0.60;;;11.60;99.90;;;;;;5073871;28;20662;-65
2023/04/22 01:28:15;;;;;;;0.70;0.70;;;11.50;99.90;;;;;;5074486;28;20620;-66
2023/04/22 01:30:43;;;;;;;0.70;0.70;;;11.50;99.90;;;;;;5076929;28;20227;-65
2023/04/22 01:33:10;;;;;;;0.60;0.60;;;11.40;99.90;;;;;;5080388;28;20206;-66
2023/04/22 01:35:38;;;;;;;0.80;0.80;;;11.30;99.90;;;;;;5081337;28;20199;-64
2023/04/22 01:38:06;;;;;;;0.80;0.70;;;11.30;99.90;;;;;;5078783;28;20203;-66
2023/04/22 01:40:34;;;;;;;0.90;0.90;;;11.20;99.90;;;;;;5072789;28;20823;-64
2023/04/22 01:43:01;;;;;;;0.80;0.80;;;11.20;99.90;;;;;;5073739;28;20217;-64
2023/04/22 01:45:29;;;;;;;0.80;0.80;;;11.20;99.90;;;;;;5074026;28;20223;-65
2023/04/22 01:47:56;;;;;;;0.67;0.67;;;11.10;99.90;;;;;;5074229;28;20214;-64
2023/04/22 01:50:23;;;;;;;0.80;0.77;;;11.10;99.90;;;;;;5072627;28;20227;-63
2023/04/22 01:52:50;;;;;;;0.70;0.70;;;11.00;99.90;;;;;;5073500;28;20745;-66
2023/04/22 01:55:17;;;;;;;0.90;0.70;;;11.00;99.90;;;;;;5073447;28;20581;-65
2023/04/22 01:57:45;;;;;;;0.70;0.70;;;11.00;99.90;;;;;;5076390;28;20203;-66
2023/04/22 02:00:13;;;;;;;0.60;0.60;;;10.90;99.90;;;;;;5074856;28;20310;-66
2023/04/22 02:02:40;;;;;;;0.70;0.68;;;10.90;99.90;;;;;;5073500;28;20306;-63
2023/04/22 02:05:07;;;;;;;0.67;0.67;;;10.80;99.90;;;;;;5073319;28;20623;-65
2023/04/22 02:07:35;;;;;;;0.60;0.60;;;10.70;99.90;;;;;;5072804;28;20203;-65
2023/04/22 02:10:03;;;;;;;0.70;0.70;;;10.70;99.90;;;;;;5072284;28;20235;-64
2023/04/22 02:12:31;;;;;;;0.77;0.77;;;10.70;99.90;;;;;;5072597;28;20237;-63
2023/04/22 02:14:59;;;;;;;0.60;0.60;;;10.50;99.90;;;;;;5072808;28;20206;-65
2023/04/22 02:17:26;;;;;;;1.03;0.60;;;10.40;99.90;;;;;;5072628;28;20207;-65
2023/04/22 02:19:53;;;;;;;1.30;0.67;;;10.40;99.90;;;;;;5071762;28;20231;-66
2023/04/22 02:22:20;;;;;;;0.70;0.70;;;10.40;99.90;;;;;;5072468;28;20233;-66
2023/04/22 02:24:46;;;;;;;0.77;0.77;;;10.40;99.90;;;;;;5072730;28;20223;-64
2023/04/22 02:27:13;;;;;;;0.80;0.80;;;10.50;99.90;;;;;;5071814;28;20203;-66
2023/04/22 02:29:40;;;;;;;0.60;0.60;;;10.60;99.90;;;;;;5071578;28;20223;-64
2023/04/22 02:32:08;;;;;;;0.70;0.70;;;10.60;99.90;;;;;;5072666;28;20199;-63
2023/04/22 02:34:35;;;;;;;0.60;0.60;;;10.70;99.90;;;;;;5072313;28;20588;-66
2023/04/22 02:37:02;;;;;;;0.60;0.60;;;10.60;99.90;;;;;;5072757;28;20207;-64
2023/04/22 02:39:29;;;;;;;0.60;0.60;;;10.60;99.90;;;;;;5071668;28;20214;-65
2023/04/22 02:41:55;;;;;;;0.70;0.70;;;10.60;99.90;;;;;;5072452;28;20215;-65
2023/04/22 02:44:22;;;;;;;0.60;0.60;;;10.60;99.90;;;;;;5074242;28;20253;-64
2023/04/22 02:46:49;;;;;;;0.57;0.57;;;10.60;99.90;;;;;;5088542;28;20240;-65
2023/04/22 02:49:17;;;;;;;0.60;0.60;;;10.60;99.90;;;;;;5089929;28;20294;-65
2023/04/22 02:51:44;;;;;;;0.63;0.63;;;10.60;99.90;;;;;;5089197;28;20270;-65
2023/04/22 02:54:11;;;;;;;0.80;0.80;;;10.60;99.90;;;;;;5093805;28;20202;-67
2023/04/22 02:56:38;;;;;;;0.60;0.60;;;10.60;99.90;;;;;;5096691;28;20736;-66
2023/04/22 02:59:05;;;;;;;0.73;0.73;;;10.60;99.90;;;;;;5082754;28;20646;-67
2023/04/22 03:01:31;;;;;;;0.80;0.80;;;10.60;99.90;;;;;;5071763;28;20233;-64
2023/04/22 03:03:58;;;;;;;1.20;0.90;;;10.60;99.90;;;;;;5072183;28;20211;-65
2023/04/22 03:06:27;;;;;;;0.60;0.60;;;10.60;99.90;;;;;;5073560;28;20235;-65
2023/04/22 03:08:53;;;;;;;0.60;0.60;;;10.50;99.90;;;;;;5072199;28;20213;-64
2023/04/22 03:11:20;;;;;;;0.90;0.90;;;10.50;99.90;;;;;;5070904;28;20227;-64
2023/04/22 03:13:47;;;;;;;0.90;0.90;;;10.40;99.90;;;;;;5071955;28;20207;-63
2023/04/22 03:16:14;;;;;;;0.80;0.80;;;10.40;99.90;;;;;;5072190;28;20203;-64
2023/04/22 03:18:41;;;;;;;0.80;0.80;;;10.30;99.90;;;;;;5071092;28;20211;-66
2023/04/22 03:21:07;;;;;;;0.70;0.70;;;10.30;99.90;;;;;;5071267;28;20227;-65
2023/04/22 03:23:36;;;;;;;0.80;0.80;;;10.10;99.90;;;;;;5072885;28;20202;-64
2023/04/22 03:26:02;;;;;;;0.80;0.80;;;10.10;99.90;;;;;;5071736;28;20219;-64
2023/04/22 03:28:29;;;;;;;0.80;0.80;;;10.10;99.90;;;;;;5071702;28;20203;-65
2023/04/22 03:30:56;;;;;;;0.80;0.80;;;10.00;99.90;;;;;;5070302;28;20233;-65
2023/04/22 03:33:23;;;;;;;0.80;0.80;;;10.00;99.90;;;;;;5071534;28;20207;-65
2023/04/22 03:35:50;;;;;;;1.00;1.00;;;10.00;99.90;;;;;;5071601;28;20709;-64
2023/04/22 03:38:16;;;;;;;0.90;0.90;;;9.90;99.90;;;;;;5072477;28;20207;-65
2023/04/22 03:40:45;;;;;;;0.80;0.80;;;9.90;99.90;;;;;;5071525;28;20227;-65
2023/04/22 03:43:11;;;;;;;0.70;0.70;;;10.00;99.90;;;;;;5072282;28;20215;-65
2023/04/22 03:45:38;;;;;;;1.53;0.97;;;10.00;99.90;;;;;;5071527;28;20230;-65
2023/04/22 03:48:05;;;;;;;0.70;0.70;;;10.00;99.90;;;;;;5071994;28;20204;-65
2023/04/22 03:50:33;;;;;;;1.20;0.90;;;10.10;99.90;;;;;;5072260;28;20324;-66
2023/04/22 03:53:00;;;;;;;0.87;0.87;;;10.00;99.90;;;;;;5072569;28;20203;-65
2023/04/22 03:55:27;;;;;;;0.67;0.67;;;10.00;99.90;;;;;;5071528;28;20202;-64
2023/04/22 03:57:55;;;;;;;0.90;0.90;;;9.90;99.90;;;;;;5071596;28;20230;-65
2023/04/22 04:00:22;;;;;;;0.70;0.70;;;9.90;99.90;;;;;;5070505;28;20644;-65
2023/04/22 04:02:49;;;;;;;0.90;0.90;;;9.90;99.90;;;;;;5071485;28;20245;-64
2023/04/22 04:05:16;;;;;;;0.87;0.87;;;9.80;99.90;;;;;;5071301;28;20219;-66
2023/04/22 04:07:42;;;;;;;0.85;0.85;;;9.80;99.90;;;;;;5071433;28;20192;-64
2023/04/22 04:10:10;;;;;;;0.80;0.80;;;9.80;99.90;;;;;;5070931;28;20587;-63
2023/04/22 04:12:37;;;;;;;0.73;0.73;;;9.80;99.90;;;;;;5071148;28;20210;-66
2023/04/22 04:15:07;;;;;;;0.60;0.60;;;9.70;99.90;;;;;;5071427;28;20237;-65
2023/04/22 04:17:34;;;;;;;0.80;0.80;;;9.70;99.90;;;;;;5071475;28;20210;-65
2023/04/22 04:20:01;;;;;;;0.90;0.90;;;9.70;99.90;;;;;;5070474;28;20784;-65
2023/04/22 04:22:28;;;;;;;0.83;0.83;;;9.70;99.90;;;;;;5071139;28;20206;-63
2023/04/22 04:24:55;;;;;;;1.07;1.00;;;9.60;99.90;;;;;;5071284;28;20203;-65
2023/04/22 04:27:22;;;;;;;0.90;0.90;;;9.60;99.90;;;;;;5071129;28;20227;-64
2023/04/22 04:29:51;;;;;;;0.80;0.80;;;9.60;99.90;;;;;;5070364;28;20308;-64
2023/04/22 04:32:20;;;;;;;0.90;0.90;;;9.50;99.90;;;;;;5071236;28;20215;-65
2023/04/22 04:34:47;;;;;;;0.90;0.90;;;9.60;99.90;;;;;;5071275;28;20579;-65
2023/04/22 04:37:15;;;;;;;0.90;0.90;;;9.50;99.90;;;;;;5071325;28;20200;-66
2023/04/22 04:39:42;;;;;;;0.90;0.90;;;9.60;99.90;;;;;;5070113;28;20223;-65
2023/04/22 04:42:11;;;;;;;0.90;0.90;;;9.50;99.90;;;;;;5070866;28;20215;-65
2023/04/22 04:44:37;;;;;;;0.90;0.90;;;9.50;99.90;;;;;;5071632;28;20243;-66
2023/04/22 04:47:05;;;;;;;0.80;0.80;;;9.50;99.90;;;;;;5071277;28;20624;-64
2023/04/22 04:49:38;;;;;;;0.85;0.85;;;9.60;99.90;;;;;;5071155;28;20310;-65
2023/04/22 04:52:06;;;;;;;1.07;1.07;;;9.60;99.90;;;;;;5074871;28;20210;-64
2023/04/22 04:54:33;;;;;;;0.97;0.97;;;9.60;99.90;;;;;;5074714;28;20214;-65
2023/04/22 04:57:00;;;;;;;0.80;0.80;;;9.60;99.90;;;;;;5074663;28;20213;-65
2023/04/22 04:59:27;;;;;;;0.70;0.70;;;9.50;99.90;;;;;;5074372;28;20268;-64
2023/04/22 05:01:54;;;;;;;0.87;0.87;;;9.50;99.90;;;;;;5074801;28;20203;-65
2023/04/22 05:04:21;;;;;;;0.83;0.83;;;9.50;99.90;;;;;;5074420;28;20215;-64
2023/04/22 05:06:49;;;;;;;0.80;0.80;;;9.50;99.90;;;;;;5074717;28;20220;-65
2023/04/22 05:09:17;;;;;;;0.90;0.90;;;9.50;99.90;;;;;;5073880;28;20218;-65
2023/04/22 05:11:43;;;;;;;0.77;0.77;;;9.60;99.90;;;;;;5074076;28;20726;-65
2023/04/22 05:14:10;;;;;;;0.80;0.80;;;9.60;99.90;;;;;;5073834;28;20592;-66
2023/04/22 05:16:37;;;;;;;0.83;0.83;;;9.60;99.90;;;;;;5074084;28;20210;-65
2023/04/22 05:19:04;;;;;;;0.80;0.80;;;9.70;99.90;;;;;;5073979;28;20207;-66
2023/04/22 05:21:31;;;;;;;0.90;0.90;;;9.80;99.90;;;;;;5073790;28;20233;-65
2023/04/22 05:24:00;;;;;;;0.90;0.90;;;9.90;99.90;;;;;;5074116;28;20207;-65
2023/04/22 05:26:27;;;;;;;1.00;1.00;;;10.00;99.90;;;;;;5073713;28;20599;-63
2023/04/22 05:28:54;;;;;;;0.90;0.90;;;10.10;99.90;;;;;;5073931;28;20298;-63
2023/04/22 05:31:20;;;;;;;0.90;0.90;;;10.10;99.90;;;;;;5073203;28;20230;-66
2023/04/22 05:33:47;;;;;;;0.80;0.80;;;10.10;99.90;;;;;;5073719;28;20681;-65
2023/04/22 05:36:14;;;;;;;0.80;0.80;;;10.00;99.90;;;;;;5073988;28;20207;-65
2023/04/22 05:38:41;;;;;;;0.90;0.90;;;10.10;99.90;;;;;;5073736;28;20203;-64
2023/04/22 05:41:09;;;;;;;0.70;0.70;;;10.10;99.90;;;;;;5072680;28;20227;-64
2023/04/22 05:43:36;;;;;;;0.70;0.70;;;10.10;99.90;;;;;;5084715;28;20238;-65
2023/04/22 05:46:03;;;;;;;0.70;0.70;;;10.10;99.90;;;;;;5077454;28;20221;-64
2023/04/22 05:48:30;;;;;;;0.70;0.70;;;10.10;99.90;;;;;;5073403;28;20203;-64
2023/04/22 05:50:56;;;;;;;0.90;0.90;;;10.10;99.90;;;;;;5072902;28;20273;-63
2023/04/22 05:53:23;;;;;;;0.70;0.70;;;10.20;99.90;;;;;;5073641;28;20222;-65
2023/04/22 05:55:50;;;;;;;0.60;0.60;;;10.20;99.90;;;;;;5072895;28;20253;-65
2023/04/22 05:58:18;;;;;;;0.70;0.70;;;10.40;99.90;;;;;;5073186;28;20565;-66
2023/04/22 06:00:45;;;;;;;0.70;0.70;;;10.50;99.90;;;;;;5071996;28;20717;-65
2023/04/22 06:03:12;;;;;;;0.70;0.70;;;10.50;99.90;;;;;;5072741;28;20681;-65
2023/04/22 06:05:39;;;;;;;0.80;0.80;;;10.60;99.90;;;;;;5073392;28;20207;-64
2023/04/22 06:08:06;;;;;;;0.80;0.80;;;10.70;99.90;;;;;;5075120;28;20289;-65
2023/04/22 06:10:33;;;;;;;0.77;0.77;;;10.80;99.90;;;;;;5076140;28;20253;-65
2023/04/22 06:13:00;;;;;;;0.80;0.80;;;10.90;99.90;;;;;;5077456;28;20205;-66
2023/04/22 06:15:28;;;;;;;1.00;1.00;;;11.10;99.90;;;;;;5079279;28;20207;-66
2023/04/22 06:17:55;;;;;;;1.10;1.00;;;11.40;99.90;;;;;;5081808;28;20202;-66
2023/04/22 06:20:22;;;;;;;1.10;1.10;;;11.40;99.90;;;;;;5079487;28;20238;-65
2023/04/22 06:22:49;;;;;;;1.17;1.17;;;11.50;99.90;;;;;;5076800;28;20213;-65
2023/04/22 06:25:16;;;;;;;1.00;1.00;;;11.60;99.90;;;;;;5076098;28;20227;-64
2023/04/22 06:27:43;;;;;;;1.20;1.10;;;11.60;99.90;;;;;;5079173;28;20223;-65
2023/04/22 06:30:11;;;;;;;0.83;0.83;;;11.70;99.90;;;;;;5078850;28;20234;-66
2023/04/22 06:32:39;;;;;;;0.87;0.87;;;11.80;99.90;;;;;;5076568;28;20207;-66
2023/04/22 06:35:07;;;;;;;0.95;0.95;;;11.90;99.90;;;;;;5078896;28;20258;-64
2023/04/22 06:37:33;;;;;;;1.00;1.00;;;12.10;99.90;;;;;;5082278;28;20289;-65
2023/04/22 06:40:00;;;;;;;1.30;1.00;;;12.40;99.90;;;;;;5073950;28;20259;-64
2023/04/22 06:42:27;;;;;;;0.98;0.98;;;12.40;99.90;;;;;;5073908;28;20215;-65
2023/04/22 06:44:54;;;;;;;0.80;0.80;;;12.50;99.90;;;;;;5073908;28;20213;-65
2023/04/22 06:47:21;;;;;;;0.80;0.80;;;12.60;99.90;;;;;;5075880;28;20295;-63
2023/04/22 06:49:49;;;;;;;0.90;0.90;;;12.70;99.90;;;;;;5075102;28;20318;-64
2023/04/22 06:52:16;;;;;;;0.90;0.90;;;12.90;99.90;;;;;;5072947;28;20207;-65
2023/04/22 06:54:42;;;;;;;0.80;0.80;;;13.10;99.90;;;;;;5072246;28;20207;-64
2023/04/22 06:57:09;;;;;;;0.80;0.80;;;13.30;99.90;;;;;;5072347;28;20265;-64
2023/04/22 06:59:36;;;;;;;0.80;0.80;;;13.50;99.90;;;;;;5078677;28;20633;-64
2023/04/22 07:02:04;;;;;;;0.90;0.90;;;13.70;99.90;;;;;;5072399;28;20207;-63
2023/04/22 07:04:31;;;;;;;0.90;0.90;;;13.90;99.90;;;;;;5071955;28;20214;-65
2023/04/22 07:06:59;;;;;;;1.20;1.10;;;14.10;99.90;;;;;;5072307;28;20314;-63
2023/04/22 07:09:27;;;;;;;1.03;0.90;;;14.20;99.90;;;;;;5071325;28;20207;-64
2023/04/22 07:11:56;;;;;;;1.00;1.00;;;14.40;99.90;;;;;;5071561;28;20207;-63
2023/04/22 07:14:25;;;;;;;0.80;0.80;;;14.60;99.90;;;;;;5071853;28;20214;-65
2023/04/22 07:16:52;;;;;;;0.70;0.70;;;14.70;99.90;;;;;;5072771;28;20188;-66
2023/04/22 07:19:19;;;;;;;0.70;0.70;;;14.70;99.90;;;;;;5071817;28;20203;-64
2023/04/22 07:21:46;;;;;;;1.03;0.60;;;14.80;99.90;;;;;;5071714;28;20199;-65
2023/04/22 07:24:14;;;;;;;0.70;0.70;;;14.90;99.90;;;;;;5072249;28;20708;-65
2023/04/22 07:26:42;;;;;;;1.30;1.10;;;14.90;99.90;;;;;;5072314;28;20596;-65
2023/04/22 07:29:10;;;;;;;0.70;0.70;;;15.00;99.90;;;;;;5071673;28;20311;-66
2023/04/22 07:31:37;;;;;;;0.97;0.97;;;15.10;99.90;;;;;;5071844;28;20230;-65
2023/04/22 07:34:03;;;;;;;0.80;0.80;;;15.20;99.90;;;;;;5076447;28;20233;-65
2023/04/22 07:36:32;;;;;;;0.80;0.80;;;15.40;99.90;;;;;;5083907;28;20205;-66
2023/04/22 07:38:59;;;;;;;0.60;0.60;;;15.60;99.90;;;;;;5079508;28;20229;-66
2023/04/22 07:41:27;;;;;;;0.80;0.80;;;15.70;99.90;;;;;;5083504;28;20329;-65
2023/04/22 07:43:54;;;;;;;0.63;0.63;;;15.90;99.90;;;;;;5083393;28;20194;-65
2023/04/22 07:46:21;;;;;;;0.90;0.90;;;16.00;99.90;;;;;;5088448;28;20223;-66
2023/04/22 07:48:48;;;;;;;0.70;0.70;;;16.10;99.90;;;;;;5082004;28;20741;-64
2023/04/22 07:51:15;;;;;;;1.17;0.80;;;16.20;99.90;;;;;;5076601;28;20222;-65
2023/04/22 07:53:41;;;;;;;0.97;0.97;;;16.30;99.90;;;;;;5075792;28;20359;-65
2023/04/22 07:56:08;;;;;;;0.80;0.80;;;16.50;99.90;;;;;;5072233;28;20685;-64
2023/04/22 07:58:37;;;;;;;0.80;0.80;;;16.60;99.90;;;;;;5071793;28;20626;-63
2023/04/22 08:01:04;;;;;;;0.80;0.80;;;16.90;99.90;;;;;;5070721;28;20616;-65
2023/04/22 08:03:31;;;;;;;1.00;1.00;;;16.90;99.90;;;;;;5072091;28;20618;-67
2023/04/22 08:05:58;;;;;;;1.00;1.00;;;17.00;99.90;;;;;;5072060;28;20207;-64
2023/04/22 08:08:25;;;;;;;1.17;1.10;;;17.00;99.90;;;;;;5072511;28;20463;-65
2023/04/22 08:10:52;;;;;;;0.93;0.93;;;17.10;99.90;;;;;;5071719;28;20265;-64
2023/04/22 08:13:18;;;;;;;1.10;1.10;;;17.30;99.90;;;;;;5072693;28;20580;-65
2023/04/22 08:15:47;;;;;;;1.40;1.30;;;17.30;99.90;;;;;;5072440;28;20205;-66
2023/04/22 08:18:14;;;;;;;1.20;1.20;;;17.20;99.90;;;;;;5072790;28;20769;-67
2023/04/22 08:20:40;;;;;;;1.00;1.00;;;17.20;99.90;;;;;;5072328;28;20633;-66
2023/04/22 08:23:07;;;;;;;0.80;0.80;;;17.40;99.90;;;;;;5073027;28;20218;-66
2023/04/22 08:25:34;;;;;;;0.80;0.80;;;17.50;99.90;;;;;;5075540;28;20621;-64
2023/04/22 08:28:01;;;;;;;0.90;0.90;;;17.50;99.90;;;;;;5086253;28;20257;-66
2023/04/22 08:30:28;;;;;;;1.33;1.10;;;17.70;99.90;;;;;;5092782;28;20283;-67
2023/04/22 08:32:56;;;;;;;0.90;0.90;;;17.90;99.90;;;;;;5093443;28;20203;-66
2023/04/22 08:35:23;;;;;;;0.77;0.77;;;17.90;99.90;;;;;;5088935;28;20227;-65
2023/04/22 08:37:50;;;;;;;0.82;0.82;;;17.80;99.90;;;;;;5083296;28;20199;-64
2023/04/22 08:40:17;;;;;;;0.80;0.80;;;17.90;99.90;;;;;;5075611;28;20680;-63
2023/04/22 08:42:44;;;;;;;0.98;0.70;;;18.10;99.90;;;;;;5075863;28;20215;-64
2023/04/22 08:45:13;;;;;;;0.80;0.80;;;18.20;99.90;;;;;;5075218;28;20777;-65
2023/04/22 08:47:41;;;;;;;0.80;0.80;;;18.30;99.90;;;;;;5074958;28;20857;-64
2023/04/22 08:50:10;;;;;;;0.90;0.90;;;18.40;99.90;;;;;;5074113;28;20258;-63
2023/04/22 08:52:37;;;;;;;0.93;0.93;;;18.50;99.90;;;;;;5074993;28;20233;-64
2023/04/22 08:55:05;;;;;;;0.90;0.90;;;18.70;99.90;;;;;;5074707;28;20690;-65
2023/04/22 08:57:32;;;;;;;0.90;0.90;;;18.70;99.90;;;;;;5073865;28;20680;-64
2023/04/22 08:59:59;;;;;;;0.70;0.70;;;18.70;99.90;;;;;;5073279;28;20721;-67
2023/04/22 09:02:28;;;;;;;0.80;0.80;;;18.80;99.90;;;;;;5073567;28;20759;-66
2023/04/22 09:04:55;;;;;;;0.90;0.90;;;19.10;99.90;;;;;;5073168;28;20211;-66
2023/04/22 09:07:24;;;;;;;1.00;1.00;;;19.20;99.90;;;;;;5074908;28;20595;-64
2023/04/22 09:09:52;;;;;;;0.80;0.80;;;19.40;99.90;;;;;;5075687;28;20237;-64
2023/04/22 09:12:19;;;;;;;0.73;0.73;;;19.50;99.90;;;;;;5079295;28;20200;-65
2023/04/22 09:14:46;;;;;;;1.10;1.00;;;19.80;99.90;;;;;;5074517;28;20237;-64
2023/04/22 09:17:16;;;;;;;1.42;0.90;;;19.90;99.90;;;;;;5073214;28;20285;-65
2023/04/22 09:19:43;;;;;;;0.75;0.75;;;20.20;99.90;;;;;;5072108;28;20255;-65
2023/04/22 09:22:13;;;;;;;0.90;0.90;;;20.40;99.90;;;;;;5073742;28;20264;-64
2023/04/22 09:24:44;;;;;;;0.80;0.80;;;20.50;99.90;;;;;;5078448;28;20647;-65
2023/04/22 09:27:11;;;;;;;0.90;0.90;;;20.60;99.90;;;;;;5074193;28;20619;-65
2023/04/22 09:29:38;;;;;;;0.80;0.80;;;20.70;99.90;;;;;;5073474;28;20333;-65
2023/04/22 09:32:10;;;;;;;1.00;1.00;;;21.00;99.90;;;;;;5074059;28;20212;-66
2023/04/22 09:34:46;;;;;;;1.55;1.40;;;21.30;99.90;;;;;;5074099;28;20483;-65
2023/04/22 09:37:13;;;;;;;1.40;1.27;;;21.40;99.90;;;;;;5073890;28;20215;-65
2023/04/22 09:39:43;;;;;;;0.77;0.77;;;21.10;99.90;;;;;;5073694;28;20233;-65
2023/04/22 09:42:11;;;;;;;0.75;0.75;;;21.10;99.90;;;;;;5073876;28;20207;-64
2023/04/22 09:44:39;;;;;;;1.67;1.00;;;21.30;99.90;;;;;;5073718;28;20236;-66
2023/04/22 09:47:07;;;;;;;0.70;0.70;;;21.60;99.90;;;;;;5077788;28;20236;-64
2023/04/22 09:49:37;;;;;;;0.80;0.80;;;21.70;99.90;;;;;;5073217;28;20214;-64
2023/04/22 09:52:04;;;;;;;0.90;0.90;;;21.70;99.90;;;;;;5073179;28;20214;-64
2023/04/22 09:54:31;;;;;;;0.80;0.80;;;21.80;99.90;;;;;;5073569;28;20683;-65
2023/04/22 09:57:01;;;;;;;0.80;0.80;;;22.00;99.90;;;;;;5073572;28;20737;-64
2023/04/22 09:59:29;;;;;;;0.70;0.70;;;22.10;99.90;;;;;;5073019;28;20199;-65
2023/04/22 10:01:59;;;;;;;0.73;0.73;;;22.30;99.90;;;;;;5072958;28;20212;-64
2023/04/22 10:04:25;;;;;;;0.60;0.60;;;22.20;99.90;;;;;;5073422;28;20580;-64
2023/04/22 10:06:53;;;;;;;0.70;0.70;;;22.20;99.90;;;;;;5073183;28;20558;-64
2023/04/22 10:09:22;;;;;;;0.88;0.70;;;22.00;99.90;;;;;;5072222;28;20211;-65
2023/04/22 10:11:51;;;;;;;0.75;0.75;;;21.90;99.90;;;;;;5073044;28;20692;-64
2023/04/22 10:14:19;;;;;;;0.80;0.80;;;22.00;99.90;;;;;;5073225;28;20207;-64
2023/04/22 10:16:47;;;;;;;0.70;0.70;;;22.00;99.90;;;;;;5072979;28;20294;-64
2023/04/22 10:19:19;;;;;;;0.70;0.70;;;22.10;99.90;;;;;;5072330;28;20272;-65
2023/04/22 10:21:47;;;;;;;0.80;0.80;;;22.30;99.90;;;;;;5072504;28;20200;-65
2023/04/22 10:24:16;;;;;;;0.73;0.73;;;22.30;99.90;;;;;;5072990;28;20212;-64
2023/04/22 10:26:48;;;;;;;1.17;0.93;;;22.30;99.90;;;;;;5073087;28;20203;-64
2023/04/22 10:29:16;;;;;;;0.82;0.82;;;22.10;99.90;;;;;;5072604;28;20288;-64
2023/04/22 10:31:45;;;;;;;0.93;0.80;;;22.00;99.90;;;;;;5072969;28;20835;-65
2023/04/22 10:34:13;;;;;;;1.25;1.05;;;21.90;99.90;;;;;;5072112;28;20568;-66
2023/04/22 10:36:54;;;;;;;0.82;0.82;;;21.90;99.90;;;;;;5071656;28;20210;-64
2023/04/22 10:39:22;;;;;;;0.65;0.65;;;21.90;99.90;;;;;;5070858;28;20793;-64
2023/04/22 10:41:53;;;;;;;0.60;0.60;;;22.10;99.90;;;;;;5070575;28;20265;-65
2023/04/22 10:44:21;;;;;;;0.70;0.70;;;22.10;99.90;;;;;;5070888;28;20209;-66
2023/04/22 10:47:00;;;;;;;0.70;0.70;;;22.10;99.90;;;;;;5070694;28;20211;-65
2023/04/22 10:49:31;;;;;;;0.90;0.90;;;22.00;99.90;;;;;;5070240;28;20203;-64
2023/04/22 10:51:59;;;;;;;0.73;0.73;;;22.10;99.90;;;;;;5071496;28;20241;-64
2023/04/22 10:55:00;;;;;;;1.02;0.90;;;22.40;99.90;;;;;;5070826;28;20713;-64
2023/04/22 10:57:47;;;;;;;0.75;0.75;;;22.50;99.90;;;;;;5070614;28;20210;-64
2023/04/22 11:00:39;;;;;;;0.60;0.60;;;22.40;99.90;;;;;;5071614;28;20241;-65
2023/04/22 11:03:13;;;;;;;0.90;0.90;;;22.30;99.90;;;;;;5071619;28;20728;-63
2023/04/22 11:05:41;;;;;;;0.70;0.70;;;22.30;99.90;;;;;;5071382;28;20231;-64
2023/04/22 11:08:12;;;;;;;0.60;0.60;;;22.30;99.90;;;;;;5070591;28;20230;-64
2023/04/22 11:10:42;;;;;;;0.80;0.80;;;22.50;99.90;;;;;;5069517;28;20229;-64
2023/04/22 11:13:11;;;;;;;0.68;0.68;;;22.70;99.90;;;;;;5070612;28;20243;-64
2023/04/22 11:15:40;;;;;;;0.88;0.88;;;23.00;99.90;;;;;;5070016;28;20892;-65
2023/04/22 11:18:14;;;;;;;0.80;0.80;;;23.30;99.90;;;;;;5070165;28;20199;-66
2023/04/22 11:20:41;;;;;;;0.63;0.63;;;23.40;99.90;;;;;;5069441;28;20222;-64
2023/04/22 11:23:09;;;;;;;0.93;0.93;;;23.50;99.90;;;;;;5070329;28;20673;-63
2023/04/22 11:25:35;;;;;;;0.70;0.70;;;23.60;99.90;;;;;;5071264;28;20211;-66
2023/04/22 11:28:02;;;;;;;0.60;0.60;;;23.60;99.90;;;;;;5070423;28;20819;-66
2023/04/22 11:30:30;;;;;;;0.60;0.60;;;23.70;99.90;;;;;;5070405;28;20241;-64
2023/04/22 11:32:59;;;;;;;0.60;0.60;;;23.60;99.90;;;;;;5071389;28;20229;-67
2023/04/22 11:35:29;;;;;;;0.70;0.70;;;23.60;99.90;;;;;;5071831;28;20225;-64
2023/04/22 11:37:58;;;;;;;0.90;0.90;;;23.30;99.90;;;;;;5070413;28;20674;-64
2023/04/22 11:40:27;;;;;;;1.00;1.00;;;23.20;99.90;;;;;;5069049;28;20231;-65
2023/04/22 11:42:55;;;;;;;0.80;0.80;;;23.30;99.90;;;;;;5069836;28;20211;-65
2023/04/22 11:45:23;;;;;;;1.08;0.80;;;23.30;99.90;;;;;;5070059;28;20761;-63
2023/04/22 11:47:50;;;;;;;0.80;0.80;;;23.10;99.90;;;;;;5070284;28;20216;-63
2023/04/22 11:50:20;;;;;;;0.90;0.90;;;23.00;99.90;;;;;;5069390;28;20242;-66
2023/04/22 11:52:51;;;;;;;0.98;0.98;;;23.00;99.90;;;;;;5070065;28;20242;-66
2023/04/22 11:55:21;;;;;;;0.88;0.88;;;22.90;99.90;;;;;;5069910;28;20229;-66
2023/04/22 11:57:56;;;;;;;0.90;0.90;;;23.00;99.90;;;;;;5071699;28;20196;-67
2023/04/22 12:00:28;;;;;;;0.80;0.80;;;23.00;99.90;;;;;;5084534;28;20290;-64
2023/04/22 12:03:00;;;;;;;0.90;0.90;;;23.00;99.90;;;;;;5078583;28;20245;-64
2023/04/22 12:05:37;;;;;;;0.75;0.75;;;23.00;99.90;;;;;;5076757;28;20203;-64
2023/04/22 12:08:08;;;;;;;1.02;0.90;;;23.00;99.90;;;;;;5076871;28;20265;-65
2023/04/22 12:10:40;;;;;;;0.70;0.70;;;22.90;99.90;;;;;;5076050;28;20227;-65
2023/04/22 12:13:07;;;;;;;1.10;1.10;;;23.00;99.90;;;;;;5073687;28;20576;-64
2023/04/22 12:15:38;;;;;;;0.80;0.80;;;23.10;99.90;;;;;;5074488;28;20199;-66
2023/04/22 12:18:06;;;;;;;0.80;0.80;;;23.30;99.90;;;;;;5074440;28;20203;-64
2023/04/22 12:20:34;;;;;;;0.70;0.70;;;23.30;99.90;;;;;;5073369;28;20219;-65
2023/04/22 12:23:01;;;;;;;0.90;0.90;;;23.70;99.90;;;;;;5073152;28;20788;-65
2023/04/22 12:25:32;;;;;;;0.80;0.80;;;24.00;99.90;;;;;;5073623;28;20203;-65
2023/04/22 12:27:59;;;;;;;0.70;0.70;;;23.90;99.90;;;;;;5073218;28;20222;-65
2023/04/22 12:30:26;;;;;;;0.65;0.65;;;23.80;99.90;;;;;;5072097;28;20223;-64
2023/04/22 12:32:53;;;;;;;0.75;0.73;;;23.70;99.90;;;;;;5073197;28;20580;-64
2023/04/22 12:35:20;;;;;;;0.80;0.80;;;23.60;99.90;;;;;;5072885;28;20203;-64
2023/04/22 12:37:46;;;;;;;0.82;0.82;;;23.60;99.90;;;;;;5073084;28;20207;-64
2023/04/22 12:40:13;;;;;;;1.02;1.02;;;23.60;99.90;;;;;;5070952;28;20322;-65
2023/04/22 12:42:41;;;;;;;0.80;0.80;;;23.60;99.90;;;;;;5073811;28;20762;-64
2023/04/22 12:45:09;;;;;;;0.65;0.65;;;23.80;99.90;;;;;;5074015;28;20214;-65
2023/04/22 12:47:36;;;;;;;0.80;0.80;;;23.90;99.90;;;;;;5073843;28;20678;-63
2023/04/22 12:50:05;;;;;;;0.80;0.80;;;23.90;99.90;;;;;;5073274;28;20223;-66
2023/04/22 12:52:33;;;;;;;0.70;0.70;;;23.90;99.90;;;;;;5073799;28;20219;-65